Time;durP1;ratioP1;P1;durP2;ratioP2;P2;SDS_P1;SDS_P2;PMS_P1;PMS_P2;Temp;Humidity;BMP_temperature;BMP_pressure;BME280_temperature;BME280_humidity;BME280_pressure;Samples;Min_cycle;Max_cycle;Signal;HPM_P1;HPM_P2
2020/12/16 00:01:45;;;;;;;16.67;15.38;;;3.90;79.20;;;;;;4992817;29;20042;-81
2020/12/16 00:04:17;;;;;;;16.80;15.50;;;3.80;79.40;;;;;;4997318;29;20397;-83
2020/12/16 00:06:48;;;;;;;16.38;15.18;;;3.70;79.90;;;;;;4991311;29;20179;-83
2020/12/16 00:09:20;;;;;;;16.92;15.65;;;3.70;80.30;;;;;;5007254;29;20425;-83
2020/12/16 00:11:51;;;;;;;18.02;16.65;;;3.70;79.90;;;;;;4990935;29;20047;-82
2020/12/16 00:14:23;;;;;;;16.45;15.13;;;3.70;79.40;;;;;;5001667;29;20105;-81
2020/12/16 00:16:54;;;;;;;16.27;15.07;;;3.70;79.10;;;;;;4999254;29;20107;-83
2020/12/16 00:19:26;;;;;;;16.35;15.05;;;3.70;79.20;;;;;;4992781;29;20050;-82
2020/12/16 00:21:59;;;;;;;15.90;14.70;;;3.70;79.40;;;;;;4990561;29;20038;-81
2020/12/16 00:24:30;;;;;;;15.57;14.48;;;3.70;80.20;;;;;;4988989;29;20121;-81
2020/12/16 00:27:02;;;;;;;16.50;15.30;;;3.60;79.90;;;;;;4991213;29;20046;-82
2020/12/16 00:29:33;;;;;;;16.27;15.07;;;3.70;80.20;;;;;;4990025;29;20054;-83
2020/12/16 00:32:05;;;;;;;16.08;14.90;;;3.60;80.30;;;;;;4990231;29;20061;-81
2020/12/16 00:34:38;;;;;;;15.68;14.48;;;3.60;80.60;;;;;;4990492;29;20058;-80
2020/12/16 00:37:09;;;;;;;16.00;14.90;;;3.70;81.50;;;;;;4991557;29;20616;-81
2020/12/16 00:39:41;;;;;;;16.85;15.55;;;3.60;81.00;;;;;;4989157;29;20058;-81
2020/12/16 00:42:12;;;;;;;17.30;16.00;;;3.60;80.10;;;;;;4994081;29;20053;-81
2020/12/16 00:44:45;;;;;;;16.55;15.35;;;3.60;79.60;;;;;;4995245;29;20122;-80
2020/12/16 00:47:16;;;;;;;16.33;15.13;;;3.60;79.60;;;;;;4994030;29;20056;-83
2020/12/16 00:49:48;;;;;;;16.67;15.48;;;3.60;79.60;;;;;;5007246;29;20543;-83
2020/12/16 00:52:19;;;;;;;16.73;15.50;;;3.60;79.60;;;;;;4994945;29;20725;-81
2020/12/16 00:54:51;;;;;;;17.13;15.82;;;3.60;79.60;;;;;;5008143;29;20144;-81
2020/12/16 00:57:22;;;;;;;16.58;15.38;;;3.60;79.40;;;;;;5007008;29;20136;-82
2020/12/16 00:59:54;;;;;;;15.85;14.65;;;3.60;79.50;;;;;;4994388;29;20116;-79
2020/12/16 01:02:25;;;;;;;16.17;14.98;;;3.60;79.70;;;;;;4996230;29;20046;-78
2020/12/16 01:04:59;;;;;;;14.93;13.82;;;3.60;79.90;;;;;;4996778;29;20572;-79
2020/12/16 01:07:30;;;;;;;15.43;14.32;;;3.60;80.40;;;;;;5010547;29;20052;-81
2020/12/16 01:10:03;;;;;;;15.18;14.07;;;3.60;79.90;;;;;;5000826;29;20163;-80
2020/12/16 01:12:41;;;;;;;15.10;14.00;;;3.60;79.90;;;;;;4995323;29;20045;-79
2020/12/16 01:15:17;;;;;;;15.57;14.48;;;3.60;80.00;;;;;;4997296;29;20048;-80
2020/12/16 01:17:50;;;;;;;15.82;14.70;;;3.60;79.90;;;;;;4998740;29;20068;-79
2020/12/16 01:20:30;;;;;;;15.05;13.95;;;3.60;80.30;;;;;;4996710;29;20201;-80
2020/12/16 01:23:20;;;;;;;16.02;14.82;;;3.60;79.50;;;;;;5012187;29;20405;-79
2020/12/16 01:25:52;;;;;;;15.60;14.43;;;3.60;79.50;;;;;;5010977;29;20049;-83
2020/12/16 01:28:24;;;;;;;16.20;14.93;;;3.60;79.10;;;;;;4987081;29;20081;-81
2020/12/16 01:31:00;;;;;;;15.20;14.10;;;3.60;79.10;;;;;;5009463;29;20054;-83
2020/12/16 01:33:34;;;;;;;15.07;13.98;;;3.50;79.20;;;;;;4995295;29;20057;-83
2020/12/16 01:36:12;;;;;;;16.00;14.80;;;3.50;79.20;;;;;;4998276;29;20140;-81
2020/12/16 01:38:47;;;;;;;16.23;15.02;;;3.50;79.50;;;;;;4995215;29;20038;-82
2020/12/16 01:41:21;;;;;;;15.43;14.23;;;3.50;79.30;;;;;;4995344;29;20476;-81
2020/12/16 01:43:53;;;;;;;15.73;14.63;;;3.40;79.50;;;;;;4997847;29;20094;-80
2020/12/16 01:46:28;;;;;;;15.20;14.10;;;3.40;79.60;;;;;;4993640;29;20068;-82
2020/12/16 01:48:59;;;;;;;15.15;13.85;;;3.40;79.50;;;;;;4996927;29;20050;-80
2020/12/16 01:51:32;;;;;;;15.15;14.05;;;3.40;79.60;;;;;;4992611;29;20069;-81
2020/12/16 01:54:07;;;;;;;14.77;13.77;;;3.40;79.70;;;;;;4997063;29;20154;-81
2020/12/16 01:56:43;;;;;;;15.15;13.98;;;3.40;80.30;;;;;;4996547;29;20198;-79
2020/12/16 01:59:34;;;;;;;14.57;13.52;;;3.30;80.40;;;;;;4982159;29;20122;-81
2020/12/16 02:02:08;;;;;;;14.55;13.55;;;3.30;80.40;;;;;;4999284;29;20049;-80
2020/12/16 02:04:44;;;;;;;14.98;13.77;;;3.30;80.00;;;;;;4995952;29;20050;-82
2020/12/16 02:07:16;;;;;;;15.30;14.20;;;3.30;81.00;;;;;;4996864;29;20752;-82
2020/12/16 02:09:48;;;;;;;14.75;13.65;;;3.20;80.20;;;;;;5011401;29;20050;-82
2020/12/16 02:12:30;;;;;;;14.30;13.30;;;3.20;80.40;;;;;;4997927;29;20046;-80
2020/12/16 02:15:05;;;;;;;15.32;14.13;;;3.20;80.70;;;;;;5008547;29;20077;-83
2020/12/16 02:17:38;;;;;;;15.50;14.40;;;3.20;80.20;;;;;;5009932;29;20571;-80
2020/12/16 02:20:10;;;;;;;15.10;14.00;;;3.10;79.80;;;;;;4993604;29;20046;-80
2020/12/16 02:22:49;;;;;;;15.20;14.05;;;3.10;79.80;;;;;;5008435;29;20137;-83
2020/12/16 02:25:24;;;;;;;15.43;14.32;;;3.10;79.70;;;;;;4990249;29;20043;-82
2020/12/16 02:28:07;;;;;;;15.20;14.00;;;3.10;79.40;;;;;;4984899;29;20069;-82
2020/12/16 02:30:43;;;;;;;15.57;14.48;;;3.10;79.10;;;;;;4975110;29;20052;-80
2020/12/16 02:33:42;;;;;;;14.85;13.80;;;3.10;79.60;;;;;;4989447;29;20145;-81
2020/12/16 02:36:25;;;;;;;15.27;14.10;;;3.00;79.10;;;;;;4998022;29;20059;-79
2020/12/16 02:39:08;;;;;;;15.15;14.00;;;3.00;78.90;;;;;;5007581;29;20053;-80
2020/12/16 02:41:48;;;;;;;14.85;13.75;;;2.90;78.90;;;;;;4997090;29;20092;-83
2020/12/16 02:44:20;;;;;;;14.68;13.65;;;2.90;78.90;;;;;;5010167;29;20042;-80
2020/12/16 02:47:15;;;;;;;15.48;14.32;;;2.90;79.00;;;;;;4991737;29;20050;-80
2020/12/16 02:49:48;;;;;;;14.60;13.50;;;2.90;79.60;;;;;;5008508;29;20062;-83
2020/12/16 02:52:21;;;;;;;14.40;13.30;;;2.80;79.80;;;;;;4992861;29;20087;-81
2020/12/16 02:54:52;;;;;;;14.73;13.73;;;2.80;79.60;;;;;;5010660;29;20106;-81
2020/12/16 02:57:36;;;;;;;15.27;14.18;;;2.80;79.10;;;;;;4983016;29;20076;-81
2020/12/16 03:00:11;;;;;;;14.30;13.25;;;2.80;78.80;;;;;;4997072;29;20050;-82
2020/12/16 03:03:05;;;;;;;14.32;13.30;;;2.80;78.60;;;;;;4994865;29;20100;-82
2020/12/16 03:05:50;;;;;;;14.60;13.50;;;2.80;78.50;;;;;;5008660;29;20050;-82
2020/12/16 03:08:50;;;;;;;;;;;2.80;78.20;;;;;;5001908;29;20061;-82
2020/12/16 03:11:24;;;;;;;14.00;12.90;;;2.70;78.20;;;;;;4977032;29;19932;-81
2020/12/16 03:13:58;;;;;;;13.82;12.82;;;2.70;78.00;;;;;;5000126;29;20046;-80
2020/12/16 03:16:30;;;;;;;14.27;13.25;;;2.70;78.30;;;;;;4978070;29;20072;-80
2020/12/16 03:19:15;;;;;;;14.60;13.50;;;2.70;78.10;;;;;;4993352;29;20038;-80
2020/12/16 03:21:47;;;;;;;13.70;12.70;;;2.70;78.00;;;;;;4996441;29;20046;-83
2020/12/16 03:24:46;;;;;;;13.63;12.55;;;2.70;77.90;;;;;;5008439;29;20050;-82
2020/12/16 03:27:23;;;;;;;13.70;12.52;;;2.60;78.00;;;;;;4994954;29;20053;-80
2020/12/16 03:30:01;;;;;;;14.13;13.02;;;2.60;78.20;;;;;;5006350;29;20054;-81
2020/12/16 03:32:55;;;;;;;13.45;12.45;;;2.60;78.00;;;;;;4991939;29;20422;-81
2020/12/16 03:35:44;;;;;;;13.48;12.48;;;2.50;78.10;;;;;;5010914;29;20632;-83
2020/12/16 03:38:19;;;;;;;13.82;12.68;;;2.50;78.00;;;;;;4982821;29;20125;-81
2020/12/16 03:40:57;;;;;;;13.30;12.32;;;2.50;78.40;;;;;;5006523;29;20042;-83
2020/12/16 03:43:32;;;;;;;13.50;12.52;;;2.50;78.70;;;;;;4994660;29;20058;-83
2020/12/16 03:46:08;;;;;;;14.00;12.90;;;2.40;78.50;;;;;;4995538;29;20038;-82
2020/12/16 03:48:42;;;;;;;14.23;13.23;;;2.40;81.20;;;;;;4996503;29;20058;-82
2020/12/16 03:51:15;;;;;;;14.25;13.25;;;2.40;82.40;;;;;;4994394;29;20095;-83
2020/12/16 03:53:51;;;;;;;14.20;13.00;;;2.40;83.00;;;;;;4979569;29;20152;-81
2020/12/16 03:56:38;;;;;;;14.63;13.52;;;2.50;82.60;;;;;;5006713;29;20753;-78
2020/12/16 03:59:25;;;;;;;19.15;14.55;;;2.50;81.30;;;;;;5010316;29;20809;-79
2020/12/16 04:02:15;;;;;;;14.05;13.05;;;2.50;80.10;;;;;;4995343;29;20046;-80
2020/12/16 04:04:59;;;;;;;13.82;12.82;;;2.50;79.50;;;;;;5009231;29;20050;-81
2020/12/16 04:07:31;;;;;;;14.23;13.13;;;2.50;79.30;;;;;;4992314;29;20080;-80
2020/12/16 04:10:16;;;;;;;14.32;13.18;;;2.50;79.00;;;;;;5005812;29;20068;-79
2020/12/16 04:12:47;;;;;;;14.25;13.15;;;2.50;78.70;;;;;;4995356;29;20046;-79
2020/12/16 04:15:19;;;;;;;14.07;13.07;;;2.50;78.50;;;;;;4991678;29;20872;-79
2020/12/16 04:17:51;;;;;;;14.05;12.95;;;2.50;78.30;;;;;;4995454;29;20071;-80
2020/12/16 04:20:28;;;;;;;14.18;13.18;;;2.50;78.20;;;;;;4992838;29;20046;-79
2020/12/16 04:23:06;;;;;;;13.50;12.50;;;2.40;78.00;;;;;;4980508;29;20526;-82
2020/12/16 04:25:40;;;;;;;13.70;12.63;;;2.50;78.00;;;;;;4997040;29;20056;-83
2020/12/16 04:28:17;;;;;;;13.68;12.57;;;2.40;77.80;;;;;;5003755;29;20204;-84
2020/12/16 04:30:48;;;;;;;13.40;12.40;;;2.40;77.90;;;;;;4991196;29;20098;-81
2020/12/16 04:33:21;;;;;;;13.85;12.85;;;2.40;78.20;;;;;;5007543;29;20102;-81
2020/12/16 04:35:52;;;;;;;12.65;11.75;;;2.30;78.50;;;;;;4992112;29;20049;-80
2020/12/16 04:38:24;;;;;;;13.70;12.63;;;2.30;81.20;;;;;;4998486;29;20520;-81
2020/12/16 04:41:00;;;;;;;13.13;12.23;;;2.30;80.90;;;;;;5004192;29;20050;-80
2020/12/16 04:43:40;;;;;;;13.60;12.60;;;2.30;81.20;;;;;;4991269;29;20620;-80
2020/12/16 04:46:17;;;;;;;14.18;13.07;;;2.30;80.50;;;;;;4974824;29;20126;-79
2020/12/16 04:48:50;;;;;;;13.80;12.80;;;2.30;79.80;;;;;;4988982;29;20058;-81
2020/12/16 04:51:33;;;;;;;13.90;12.90;;;2.40;79.20;;;;;;4974120;29;20156;-79
2020/12/16 04:54:07;;;;;;;14.38;13.25;;;2.40;78.80;;;;;;5005713;29;20056;-80
2020/12/16 04:56:43;;;;;;;13.73;12.65;;;2.40;78.70;;;;;;5004546;29;20121;-82
2020/12/16 04:59:37;;;;;;;13.43;12.43;;;2.40;78.40;;;;;;4992039;29;20058;-82
2020/12/16 05:02:29;;;;;;;13.85;12.65;;;2.30;78.30;;;;;;4998769;29;20038;-79
2020/12/16 05:05:27;;;;;;;13.45;12.55;;;2.20;79.40;;;;;;4989729;29;20140;-79
2020/12/16 05:08:07;;;;;;;13.38;12.40;;;2.20;79.10;;;;;;4991016;29;20057;-79
2020/12/16 05:10:42;;;;;;;13.70;12.70;;;2.20;78.60;;;;;;4992920;29;20054;-79
2020/12/16 05:13:28;;;;;;;13.90;12.90;;;2.10;79.10;;;;;;4995364;29;20046;-82
2020/12/16 05:16:05;;;;;;;13.60;12.60;;;2.10;78.70;;;;;;4982082;29;20140;-79
2020/12/16 05:18:37;;;;;;;13.80;12.80;;;2.10;79.50;;;;;;5007778;29;20118;-80
2020/12/16 05:21:16;;;;;;;13.43;12.43;;;2.00;79.30;;;;;;4990393;29;20126;-81
2020/12/16 05:23:52;;;;;;;13.68;12.68;;;2.00;79.80;;;;;;5004928;29;20046;-78
2020/12/16 05:26:25;;;;;;;13.30;12.30;;;2.00;80.00;;;;;;4989918;29;20041;-78
2020/12/16 05:28:56;;;;;;;12.88;11.98;;;2.10;80.70;;;;;;4990496;29;20046;-80
2020/12/16 05:31:28;;;;;;;13.38;12.38;;;2.00;80.70;;;;;;4987529;29;20039;-78
2020/12/16 05:34:00;;;;;;;12.93;12.02;;;2.00;80.10;;;;;;4997343;29;20122;-79
2020/12/16 05:36:32;;;;;;;13.93;12.82;;;2.00;80.00;;;;;;4991321;29;20081;-79
2020/12/16 05:39:04;;;;;;;13.70;12.70;;;2.00;79.60;;;;;;4997773;29;20057;-79
2020/12/16 05:41:36;;;;;;;14.15;12.85;;;2.10;79.40;;;;;;4990027;29;20114;-79
2020/12/16 05:44:24;;;;;;;13.80;12.75;;;2.10;79.20;;;;;;4991845;29;20062;-78
2020/12/16 05:46:56;;;;;;;14.07;12.75;;;2.10;79.10;;;;;;4993939;29;20065;-78
2020/12/16 05:49:29;;;;;;;14.43;13.23;;;2.10;79.00;;;;;;4993159;29;20058;-78
2020/12/16 05:52:06;;;;;;;14.15;13.05;;;2.10;78.70;;;;;;4993558;29;20540;-80
2020/12/16 05:54:38;;;;;;;13.57;12.48;;;2.10;78.60;;;;;;5000479;29;20103;-81
2020/12/16 05:57:29;;;;;;;13.45;12.45;;;2.00;78.60;;;;;;5008207;29;20042;-79
2020/12/16 06:00:09;;;;;;;13.43;12.32;;;2.00;78.60;;;;;;5007542;29;20043;-77
2020/12/16 06:02:46;;;;;;;13.68;12.60;;;2.00;78.30;;;;;;4993789;29;20058;-79
2020/12/16 06:05:17;;;;;;;14.77;13.57;;;2.00;78.40;;;;;;4995915;29;20057;-80
2020/12/16 06:07:49;;;;;;;14.07;12.98;;;1.90;78.30;;;;;;4997282;29;20123;-79
2020/12/16 06:10:22;;;;;;;14.23;13.02;;;1.90;78.40;;;;;;4992209;29;20726;-82
2020/12/16 06:12:56;;;;;;;13.55;12.45;;;1.90;78.60;;;;;;4993915;29;20046;-82
2020/12/16 06:15:32;;;;;;;13.50;12.30;;;1.80;78.30;;;;;;5009441;29;20054;-82
2020/12/16 06:18:04;;;;;;;13.18;12.18;;;1.90;78.30;;;;;;5004525;29;20051;-85
2020/12/16 06:20:39;;;;;;;13.90;12.70;;;1.80;78.50;;;;;;5020037;29;20054;-84
2020/12/16 06:23:26;;;;;;;13.40;12.40;;;1.80;78.80;;;;;;5019050;29;20042;-84
2020/12/16 06:26:17;;;;;;;12.93;11.93;;;1.80;78.50;;;;;;5003438;29;20050;-84
2020/12/16 06:28:49;;;;;;;13.23;12.20;;;1.80;78.90;;;;;;4984571;29;20524;-85
2020/12/16 06:31:31;;;;;;;13.63;12.52;;;1.80;78.60;;;;;;5008000;29;20062;-84
2020/12/16 06:34:05;;;;;;;12.55;11.57;;;1.80;78.60;;;;;;5004059;29;20544;-85
2020/12/16 06:36:40;;;;;;;17.58;15.85;;;1.80;78.40;;;;;;4967678;29;20120;-82
2020/12/16 06:39:23;;;;;;;19.35;17.35;;;1.80;78.60;;;;;;4995363;29;20050;-80
2020/12/16 06:42:00;;;;;;;17.42;15.63;;;1.70;78.70;;;;;;4990376;29;20058;-80
2020/12/16 06:44:32;;;;;;;14.43;13.23;;;1.70;78.70;;;;;;4991310;29;20049;-81
2020/12/16 06:47:04;;;;;;;12.85;11.75;;;1.80;79.20;;;;;;4998544;29;20564;-81
2020/12/16 06:49:38;;;;;;;13.95;12.82;;;1.70;79.60;;;;;;4991363;29;20137;-80
2020/12/16 06:52:13;;;;;;;13.55;12.43;;;1.70;79.50;;;;;;5007856;29;20046;-79
2020/12/16 06:54:53;;;;;;;14.85;13.55;;;1.60;79.60;;;;;;4993710;29;20420;-79
2020/12/16 06:57:25;;;;;;;15.88;14.38;;;1.60;79.50;;;;;;4993496;29;20046;-80
2020/12/16 06:59:59;;;;;;;14.73;13.35;;;1.70;79.10;;;;;;4991365;29;20117;-82
2020/12/16 07:02:34;;;;;;;14.23;13.02;;;1.70;78.70;;;;;;4993497;29;20089;-80
2020/12/16 07:05:26;;;;;;;14.77;13.48;;;1.70;78.50;;;;;;4993470;29;20544;-80
2020/12/16 07:07:58;;;;;;;13.75;12.55;;;1.70;78.80;;;;;;4992954;29;20061;-81
2020/12/16 07:10:40;;;;;;;12.00;11.00;;;1.70;78.90;;;;;;5000357;29;20083;-79
2020/12/16 07:13:16;;;;;;;12.60;11.63;;;1.70;79.50;;;;;;4992005;29;20038;-79
2020/12/16 07:15:51;;;;;;;13.13;12.13;;;1.70;79.90;;;;;;4997747;29;20053;-78
2020/12/16 07:18:28;;;;;;;13.02;12.02;;;1.70;79.70;;;;;;4995187;29;20886;-78
2020/12/16 07:21:14;;;;;;;15.80;14.40;;;1.70;79.20;;;;;;5008803;29;20038;-78
2020/12/16 07:23:57;;;;;;;14.75;13.45;;;1.70;79.10;;;;;;4996152;29;20118;-79
2020/12/16 07:26:31;;;;;;;14.18;12.98;;;1.70;78.80;;;;;;4994682;29;20114;-78
2020/12/16 07:29:31;;;;;;;15.18;13.70;;;1.70;78.90;;;;;;4992854;29;20098;-78
2020/12/16 07:32:07;;;;;;;;;;;1.60;79.10;;;;;;5005721;29;20411;-79
2020/12/16 07:34:46;;;;;;;14.55;13.15;;;1.60;78.70;;;;;;4995106;29;20273;-78
2020/12/16 07:37:20;;;;;;;13.55;12.27;;;1.50;78.90;;;;;;4999729;29;20072;-80
2020/12/16 07:39:55;;;;;;;13.45;12.35;;;1.50;79.20;;;;;;4990545;29;20051;-80
2020/12/16 07:42:32;;;;;;;13.60;12.40;;;1.50;79.40;;;;;;4992717;29;20084;-78
2020/12/16 07:45:08;;;;;;;14.15;12.95;;;1.60;79.50;;;;;;4991464;29;20046;-79
2020/12/16 07:47:42;;;;;;;13.40;12.25;;;1.60;79.20;;;;;;4994252;29;20066;-78
2020/12/16 07:50:14;;;;;;;13.40;12.30;;;1.60;79.00;;;;;;4991466;29;20567;-80
2020/12/16 07:52:54;;;;;;;15.00;13.73;;;1.70;79.10;;;;;;4995885;29;20393;-78
2020/12/16 07:55:26;;;;;;;14.57;13.38;;;1.70;79.00;;;;;;4994791;29;20061;-78
2020/12/16 07:58:06;;;;;;;14.50;13.30;;;1.70;79.10;;;;;;4974219;29;20103;-77
2020/12/16 08:00:38;;;;;;;14.70;13.40;;;1.80;79.20;;;;;;4988979;29;20049;-77
2020/12/16 08:03:10;;;;;;;13.18;12.05;;;1.80;79.30;;;;;;4998680;29;20066;-77
2020/12/16 08:05:41;;;;;;;15.60;14.30;;;1.90;79.50;;;;;;4991158;29;20050;-77
2020/12/16 08:08:12;;;;;;;13.80;12.63;;;1.80;80.40;;;;;;4991912;29;20043;-77
2020/12/16 08:10:44;;;;;;;14.52;13.23;;;1.80;79.50;;;;;;4991537;29;20309;-77
2020/12/16 08:13:23;;;;;;;14.95;13.43;;;1.80;79.40;;;;;;4990504;29;20066;-78
2020/12/16 08:16:05;;;;;;;15.03;13.63;;;1.90;79.50;;;;;;4991983;29;20057;-77
2020/12/16 08:18:42;;;;;;;16.00;14.45;;;1.90;79.50;;;;;;4989884;29;21657;-77
2020/12/16 08:21:17;;;;;;;14.63;13.25;;;2.00;79.60;;;;;;4996883;29;20523;-79
2020/12/16 08:23:53;;;;;;;14.50;13.20;;;2.00;79.70;;;;;;4990091;29;20050;-78
2020/12/16 08:26:25;;;;;;;13.90;12.68;;;2.00;79.80;;;;;;4998205;29;20514;-77
2020/12/16 08:29:03;;;;;;;14.60;13.27;;;2.10;80.20;;;;;;5003701;29;20053;-77
2020/12/16 08:31:36;;;;;;;13.90;12.80;;;2.10;80.10;;;;;;4990374;29;20141;-78
2020/12/16 08:34:11;;;;;;;13.10;12.02;;;2.20;80.40;;;;;;4991974;29;20038;-79
2020/12/16 08:36:45;;;;;;;12.90;11.90;;;2.20;80.50;;;;;;4989328;29;20071;-77
2020/12/16 08:39:23;;;;;;;12.80;11.73;;;2.20;80.60;;;;;;4992597;29;20122;-77
2020/12/16 08:41:55;;;;;;;13.45;12.40;;;2.30;80.60;;;;;;4989080;29;20134;-77
2020/12/16 08:44:27;;;;;;;12.57;11.57;;;2.40;80.60;;;;;;4994339;29;20053;-78
2020/12/16 08:46:58;;;;;;;13.20;12.20;;;2.50;80.70;;;;;;4992669;29;20513;-77
2020/12/16 08:49:29;;;;;;;13.70;12.60;;;2.50;81.20;;;;;;4992198;29;20129;-79
2020/12/16 08:52:01;;;;;;;13.00;12.00;;;2.50;80.80;;;;;;4974257;29;20042;-78
2020/12/16 08:54:32;;;;;;;15.55;13.93;;;2.50;80.90;;;;;;5006838;29;20428;-78
2020/12/16 08:57:04;;;;;;;15.35;13.77;;;2.40;82.00;;;;;;4988559;29;20107;-76
2020/12/16 08:59:38;;;;;;;15.05;13.55;;;2.30;82.30;;;;;;4978641;29;20097;-77
2020/12/16 09:02:09;;;;;;;15.32;13.93;;;2.30;82.50;;;;;;4977812;29;20046;-78
2020/12/16 09:04:43;;;;;;;15.00;13.70;;;2.40;82.40;;;;;;4992298;29;20038;-77
2020/12/16 09:07:22;;;;;;;13.88;12.77;;;2.50;82.50;;;;;;4992034;29;20038;-80
2020/12/16 09:09:55;;;;;;;14.23;13.13;;;2.50;83.00;;;;;;4992604;29;20102;-78
2020/12/16 09:12:26;;;;;;;14.73;13.52;;;2.60;82.60;;;;;;5005200;29;20043;-78
2020/12/16 09:15:02;;;;;;;15.20;14.00;;;2.70;82.30;;;;;;4992448;29;20115;-77
2020/12/16 09:17:35;;;;;;;13.40;12.38;;;2.80;81.80;;;;;;4990157;29;20048;-78
2020/12/16 09:20:12;;;;;;;14.48;13.35;;;2.90;81.90;;;;;;4996250;29;20062;-79
2020/12/16 09:22:44;;;;;;;13.25;12.25;;;2.90;82.60;;;;;;4994674;29;20564;-77
2020/12/16 09:25:16;;;;;;;13.80;12.77;;;3.00;83.90;;;;;;4993763;29;20053;-77
2020/12/16 09:27:58;;;;;;;14.43;13.23;;;3.00;83.80;;;;;;4995435;29;20099;-77
2020/12/16 09:30:34;;;;;;;14.40;13.30;;;3.00;83.60;;;;;;4993875;29;20122;-78
2020/12/16 09:33:16;;;;;;;14.90;13.70;;;3.10;83.70;;;;;;4994079;29;20103;-78
2020/12/16 09:35:52;;;;;;;15.13;14.00;;;3.20;83.20;;;;;;4996254;29;20050;-78
2020/12/16 09:38:24;;;;;;;14.48;13.38;;;3.40;83.20;;;;;;5001064;29;20060;-80
2020/12/16 09:40:59;;;;;;;14.65;13.55;;;3.50;83.00;;;;;;4994437;29;20517;-77
2020/12/16 09:43:41;;;;;;;15.15;13.95;;;3.60;82.60;;;;;;4997221;29;20556;-78
2020/12/16 09:46:17;;;;;;;15.60;14.38;;;3.70;82.70;;;;;;4993917;29;20051;-80
2020/12/16 09:48:58;;;;;;;14.75;13.55;;;3.70;82.90;;;;;;4991293;29;20102;-78
2020/12/16 09:51:34;;;;;;;14.27;13.15;;;3.70;82.90;;;;;;4993620;29;20539;-77
2020/12/16 09:54:05;;;;;;;13.88;12.88;;;3.80;83.10;;;;;;4994014;29;20074;-78
2020/12/16 09:56:37;;;;;;;14.20;13.10;;;3.90;83.10;;;;;;4993275;29;20069;-78
2020/12/16 09:59:18;;;;;;;14.77;13.57;;;4.00;83.10;;;;;;4994294;29;20046;-80
2020/12/16 10:01:50;;;;;;;14.50;13.40;;;4.00;82.40;;;;;;4992627;29;20102;-77
2020/12/16 10:04:21;;;;;;;14.05;12.88;;;4.10;82.00;;;;;;4994822;29;20053;-77
2020/12/16 10:06:53;;;;;;;15.20;14.00;;;4.20;82.30;;;;;;4991979;29;20058;-77
2020/12/16 10:09:24;;;;;;;14.98;13.80;;;4.30;82.30;;;;;;4996981;29;20049;-79
2020/12/16 10:11:55;;;;;;;14.93;13.73;;;4.40;82.50;;;;;;4991040;29;20107;-78
2020/12/16 10:14:27;;;;;;;14.90;13.65;;;4.50;82.40;;;;;;4992720;29;20116;-78
2020/12/16 10:17:19;;;;;;;14.98;13.82;;;4.60;82.40;;;;;;4994433;29;20089;-79
2020/12/16 10:19:51;;;;;;;15.60;14.30;;;4.70;81.60;;;;;;4993352;29;20054;-78
2020/12/16 10:22:23;;;;;;;15.40;14.20;;;4.70;81.90;;;;;;4995259;29;20391;-78
2020/12/16 10:24:54;;;;;;;15.80;14.50;;;4.80;81.40;;;;;;4994731;29;20050;-78
2020/12/16 10:27:29;;;;;;;15.98;14.68;;;4.90;81.20;;;;;;4996589;29;20050;-81
2020/12/16 10:30:02;;;;;;;14.95;13.85;;;5.00;80.80;;;;;;4995220;29;20046;-79
2020/12/16 10:32:35;;;;;;;14.90;13.75;;;5.00;80.20;;;;;;4995068;29;20141;-79
2020/12/16 10:35:07;;;;;;;14.55;13.38;;;5.00;80.20;;;;;;5004741;29;20055;-77
2020/12/16 10:37:40;;;;;;;15.75;14.27;;;5.10;79.60;;;;;;4994669;29;20493;-78
2020/12/16 10:40:12;;;;;;;15.15;14.05;;;5.20;79.30;;;;;;4991150;29;20050;-78
2020/12/16 10:42:44;;;;;;;15.27;14.07;;;5.30;79.30;;;;;;4996455;29;20099;-78
2020/12/16 10:45:15;;;;;;;16.25;14.95;;;5.40;79.00;;;;;;4984779;29;20085;-79
2020/12/16 10:47:47;;;;;;;14.93;13.73;;;5.50;79.10;;;;;;4987888;29;20054;-80
2020/12/16 10:50:18;;;;;;;15.45;14.15;;;5.60;78.40;;;;;;4994122;29;20050;-80
2020/12/16 10:52:50;;;;;;;16.52;15.23;;;5.70;78.20;;;;;;4992575;29;20122;-78
2020/12/16 10:55:21;;;;;;;15.15;13.95;;;5.80;77.80;;;;;;4995114;29;20045;-78
2020/12/16 10:57:53;;;;;;;15.23;14.00;;;5.90;77.90;;;;;;4992525;29;20046;-80
2020/12/16 11:00:25;;;;;;;15.63;14.35;;;6.00;77.40;;;;;;4992688;29;20455;-80
2020/12/16 11:02:56;;;;;;;15.45;14.15;;;6.00;76.60;;;;;;4992755;29;20051;-78
2020/12/16 11:05:28;;;;;;;15.15;13.95;;;6.10;76.80;;;;;;4993831;29;20095;-78
2020/12/16 11:07:59;;;;;;;14.90;13.77;;;6.20;76.20;;;;;;4990247;29;20089;-78
2020/12/16 11:10:31;;;;;;;15.45;14.25;;;6.30;76.00;;;;;;4993773;29;20420;-80
2020/12/16 11:13:04;;;;;;;15.02;13.93;;;6.40;76.50;;;;;;4990046;29;20058;-80
2020/12/16 11:15:35;;;;;;;15.13;14.02;;;6.40;75.40;;;;;;5006380;29;20057;-78
2020/12/16 11:18:07;;;;;;;15.07;13.98;;;6.40;75.30;;;;;;4996082;29;20453;-78
2020/12/16 11:20:38;;;;;;;14.65;13.55;;;6.40;75.10;;;;;;4992591;29;20046;-78
2020/12/16 11:23:10;;;;;;;14.88;13.68;;;6.40;75.10;;;;;;4991293;29;20418;-77
2020/12/16 11:25:41;;;;;;;15.65;14.45;;;6.30;75.40;;;;;;5003988;29;20050;-78
2020/12/16 11:28:12;;;;;;;14.82;13.73;;;6.30;75.80;;;;;;4993020;29;20517;-78
2020/12/16 11:30:44;;;;;;;14.52;13.43;;;6.30;75.80;;;;;;5004530;29;20054;-78
2020/12/16 11:33:15;;;;;;;15.25;14.05;;;6.40;76.30;;;;;;4992208;29;20041;-80
2020/12/16 11:35:47;;;;;;;15.57;14.15;;;6.40;76.10;;;;;;4994042;29;20054;-80
2020/12/16 11:38:18;;;;;;;15.00;13.90;;;6.60;76.60;;;;;;4994801;29;20050;-78
2020/12/16 11:40:49;;;;;;;15.02;13.82;;;6.60;76.90;;;;;;4993724;29;20058;-80
2020/12/16 11:43:21;;;;;;;15.13;13.93;;;6.60;76.50;;;;;;4996690;29;20570;-81
2020/12/16 11:45:53;;;;;;;14.77;13.57;;;6.70;76.20;;;;;;4991848;29;20051;-81
2020/12/16 11:48:25;;;;;;;14.43;13.27;;;6.70;76.30;;;;;;4992167;29;20042;-79
2020/12/16 11:50:56;;;;;;;15.80;14.38;;;6.80;76.20;;;;;;5004459;29;20057;-79
2020/12/16 11:53:28;;;;;;;14.60;13.50;;;6.80;75.80;;;;;;4990474;29;20046;-79
2020/12/16 11:56:00;;;;;;;15.13;14.02;;;6.80;75.40;;;;;;4997087;29;20092;-79
2020/12/16 11:58:32;;;;;;;14.43;13.23;;;6.80;75.30;;;;;;4992196;29;20077;-78
2020/12/16 12:01:03;;;;;;;14.07;12.82;;;6.80;75.60;;;;;;4990208;29;20046;-79
2020/12/16 12:03:35;;;;;;;14.70;13.60;;;6.80;75.90;;;;;;5005010;29;20041;-78
2020/12/16 12:06:11;;;;;;;14.98;13.77;;;7.00;76.30;;;;;;4991302;29;20051;-78
2020/12/16 12:08:43;;;;;;;14.10;13.10;;;7.00;75.70;;;;;;4992511;29;20094;-81
2020/12/16 12:11:16;;;;;;;14.20;13.13;;;7.00;76.10;;;;;;4994029;29;20061;-78
2020/12/16 12:13:48;;;;;;;14.25;13.15;;;7.10;75.80;;;;;;4989975;29;20061;-78
2020/12/16 12:16:19;;;;;;;14.30;13.30;;;7.10;75.70;;;;;;4990300;29;20056;-78
2020/12/16 12:18:52;;;;;;;14.43;13.27;;;7.10;74.70;;;;;;4994733;29;20451;-80
2020/12/16 12:21:23;;;;;;;14.35;13.25;;;7.10;75.10;;;;;;4989168;29;20057;-78
2020/12/16 12:23:55;;;;;;;14.85;13.65;;;7.00;75.00;;;;;;5005769;29;20049;-78
2020/12/16 12:26:27;;;;;;;14.32;13.32;;;7.00;74.90;;;;;;4991301;29;20447;-80
2020/12/16 12:28:59;;;;;;;15.23;13.90;;;7.00;75.10;;;;;;5005084;29;20053;-78
2020/12/16 12:31:30;;;;;;;14.77;13.57;;;7.00;75.20;;;;;;4988550;29;20102;-78
2020/12/16 12:34:02;;;;;;;14.73;13.63;;;7.00;75.70;;;;;;4991044;29;20095;-81
2020/12/16 12:36:33;;;;;;;15.55;14.45;;;7.00;75.20;;;;;;4990712;29;20061;-79
2020/12/16 12:39:05;;;;;;;15.60;14.38;;;7.00;76.10;;;;;;4991099;29;20050;-79
2020/12/16 12:41:37;;;;;;;15.85;14.55;;;7.00;75.90;;;;;;5003532;29;20050;-78
2020/12/16 12:44:11;;;;;;;15.80;14.60;;;7.00;76.30;;;;;;4992321;29;20091;-78
2020/12/16 12:46:42;;;;;;;15.68;14.48;;;7.00;76.40;;;;;;4994350;29;20062;-80
2020/12/16 12:49:15;;;;;;;16.08;14.77;;;7.10;76.50;;;;;;4989736;29;20046;-78
2020/12/16 12:51:50;;;;;;;15.80;14.20;;;7.10;76.50;;;;;;4988077;29;20045;-79
2020/12/16 12:54:22;;;;;;;16.45;14.50;;;7.10;77.80;;;;;;4983445;29;20446;-77
2020/12/16 12:56:53;;;;;;;15.35;14.10;;;7.10;77.10;;;;;;4992470;29;20046;-77
2020/12/16 12:59:24;;;;;;;15.13;13.98;;;7.10;77.10;;;;;;4990958;29;20829;-79
2020/12/16 13:01:56;;;;;;;15.02;13.93;;;7.10;76.80;;;;;;4994989;29;20042;-80
2020/12/16 13:04:27;;;;;;;16.02;14.82;;;7.10;76.70;;;;;;4986881;29;20449;-77
2020/12/16 13:06:59;;;;;;;15.68;14.48;;;7.10;77.00;;;;;;4993457;29;20050;-77
2020/12/16 13:09:31;;;;;;;15.60;14.50;;;7.10;77.00;;;;;;4991896;29;20046;-77
2020/12/16 13:12:02;;;;;;;15.70;14.50;;;7.10;77.10;;;;;;4998492;29;20061;-78
2020/12/16 13:14:34;;;;;;;15.48;14.27;;;7.00;77.00;;;;;;4995938;29;20045;-78
2020/12/16 13:17:05;;;;;;;15.30;14.20;;;7.00;77.10;;;;;;4999133;29;20564;-77
2020/12/16 13:19:37;;;;;;;15.50;14.30;;;7.00;77.20;;;;;;5000648;29;20057;-77